createdAt,value
2018-08-08T00:00:49.316Z,56.70
2018-08-08T00:03:17.436Z,57.50
2018-08-08T00:05:45.545Z,57.40
2018-08-08T00:08:13.649Z,57.90
2018-08-08T00:10:42.091Z,58.00
2018-08-08T00:13:10.153Z,58.60
2018-08-08T00:15:38.645Z,58.60
2018-08-08T00:18:06.725Z,58.10
2018-08-08T00:20:34.780Z,57.80
2018-08-08T00:23:02.898Z,58.30
2018-08-08T00:25:31.032Z,57.80
2018-08-08T00:27:59.308Z,56.70
2018-08-08T00:30:28.264Z,56.80
2018-08-08T00:32:57.317Z,56.70
2018-08-08T00:35:25.812Z,56.60
2018-08-08T00:37:53.988Z,57.10
2018-08-08T00:40:22.327Z,57.70
2018-08-08T00:42:50.360Z,58.50
2018-08-08T00:45:18.451Z,58.90
2018-08-08T00:47:46.525Z,59.30
2018-08-08T00:50:14.672Z,59.90
2018-08-08T00:52:43.979Z,60.40
2018-08-08T00:55:14.657Z,61.00
2018-08-08T00:57:42.720Z,61.40
2018-08-08T01:00:12.408Z,61.70
2018-08-08T01:02:40.850Z,62.10
2018-08-08T01:05:09.581Z,62.50
2018-08-08T01:07:37.668Z,62.70
2018-08-08T01:10:05.776Z,63.00
2018-08-08T01:12:33.973Z,64.00
2018-08-08T01:15:02.093Z,63.70
2018-08-08T01:17:30.232Z,64.60
2018-08-08T01:19:58.372Z,65.70
2018-08-08T01:22:26.456Z,66.30
2018-08-08T01:24:54.528Z,66.90
2018-08-08T01:27:22.727Z,67.20
2018-08-08T01:29:50.832Z,67.90
2018-08-08T01:32:19.260Z,68.40
2018-08-08T01:34:47.418Z,69.50
2018-08-08T01:37:15.508Z,70.00
2018-08-08T01:39:43.784Z,70.60
2018-08-08T01:42:11.959Z,72.00
2018-08-08T01:44:40.336Z,72.90
2018-08-08T01:47:08.377Z,74.10
2018-08-08T01:49:36.444Z,74.90
2018-08-08T01:52:04.786Z,76.30
2018-08-08T01:54:32.889Z,77.50
2018-08-08T01:57:01.564Z,78.60
2018-08-08T01:59:29.696Z,80.60
2018-08-08T02:01:57.802Z,81.90
2018-08-08T02:04:25.882Z,83.40
2018-08-08T02:06:54.397Z,85.40
2018-08-08T02:09:22.557Z,84.80
2018-08-08T02:11:52.499Z,86.10
2018-08-08T02:14:20.626Z,87.70
2018-08-08T02:16:48.961Z,88.60
2018-08-08T02:19:17.104Z,89.70
2018-08-08T02:21:45.276Z,90.70
2018-08-08T02:24:13.670Z,91.00
2018-08-08T02:26:41.746Z,91.40
2018-08-08T02:29:09.861Z,91.80
2018-08-08T02:31:38.010Z,92.10
2018-08-08T02:34:06.593Z,92.70
2018-08-08T02:36:34.593Z,92.80
2018-08-08T02:39:02.701Z,93.20
2018-08-08T02:41:30.792Z,93.60
2018-08-08T02:43:59.132Z,93.80
2018-08-08T02:46:27.142Z,94.20
2018-08-08T02:48:55.208Z,94.70
2018-08-08T02:51:23.368Z,95.20
2018-08-08T02:53:51.386Z,95.60
2018-08-08T02:56:19.504Z,96.20
2018-08-08T02:58:47.553Z,96.30
2018-08-08T03:01:15.636Z,96.70
2018-08-08T03:03:43.662Z,97.40
2018-08-08T03:06:11.769Z,97.40
2018-08-08T03:08:39.901Z,97.40
2018-08-08T03:11:07.922Z,97.50
2018-08-08T03:13:35.977Z,97.80
2018-08-08T03:16:04.076Z,97.90
2018-08-08T03:18:32.251Z,98.30
2018-08-08T03:21:00.382Z,99.00
2018-08-08T03:23:28.383Z,98.80
2018-08-08T03:25:56.427Z,98.60
2018-08-08T03:28:24.466Z,99.50
2018-08-08T03:30:52.503Z,99.90
2018-08-08T03:33:20.528Z,99.90
2018-08-08T03:35:48.562Z,99.90
2018-08-08T03:38:16.620Z,99.90
2018-08-08T03:40:44.681Z,99.90
2018-08-08T03:43:12.746Z,99.90
2018-08-08T03:45:40.828Z,99.90
2018-08-08T03:48:08.884Z,99.90
2018-08-08T03:50:37.130Z,99.90
2018-08-08T03:53:05.214Z,99.90
2018-08-08T03:55:33.360Z,99.90
2018-08-08T03:58:01.472Z,99.90
2018-08-08T04:00:29.546Z,99.90
2018-08-08T04:02:57.646Z,99.90
2018-08-08T04:05:25.719Z,99.90
2018-08-08T04:07:53.866Z,99.90
2018-08-08T04:10:21.921Z,99.90
2018-08-08T04:12:50.009Z,99.90
2018-08-08T04:15:18.086Z,99.90
2018-08-08T04:17:46.218Z,99.90
2018-08-08T04:20:14.328Z,99.90
2018-08-08T04:22:42.424Z,99.90
2018-08-08T04:25:11.852Z,99.90
2018-08-08T04:27:40.065Z,99.90
2018-08-08T04:30:10.805Z,99.90
2018-08-08T04:32:38.847Z,99.90
2018-08-08T04:35:07.008Z,99.90
2018-08-08T04:37:37.730Z,99.90
2018-08-08T04:40:07.844Z,99.90
2018-08-08T04:42:35.876Z,99.90
2018-08-08T04:45:04.693Z,99.90
2018-08-08T04:47:32.750Z,99.90
2018-08-08T04:50:00.915Z,99.90
2018-08-08T04:52:28.916Z,99.90
2018-08-08T04:54:57.038Z,99.90
2018-08-08T04:57:25.121Z,99.90
2018-08-08T04:59:53.301Z,99.90
2018-08-08T05:02:21.373Z,99.90
2018-08-08T05:04:49.612Z,99.90
2018-08-08T05:07:17.695Z,99.90
2018-08-08T05:09:45.787Z,99.90
2018-08-08T05:12:13.846Z,99.90
2018-08-08T05:14:41.831Z,99.90
2018-08-08T05:17:09.888Z,99.90
2018-08-08T05:19:38.012Z,99.90
2018-08-08T05:22:06.144Z,99.90
2018-08-08T05:24:34.252Z,99.90
2018-08-08T05:27:02.468Z,99.90
2018-08-08T05:29:30.635Z,99.90
2018-08-08T05:31:59.236Z,99.90
2018-08-08T05:34:27.339Z,99.90
2018-08-08T05:36:55.390Z,99.90
2018-08-08T05:39:23.489Z,99.90
2018-08-08T05:41:51.608Z,99.90
2018-08-08T05:44:19.698Z,99.90
2018-08-08T05:46:47.884Z,99.90
2018-08-08T05:49:15.989Z,99.90
2018-08-08T05:51:44.112Z,99.90
2018-08-08T05:54:12.192Z,99.90
2018-08-08T05:56:40.347Z,99.90
2018-08-08T05:59:08.374Z,99.90
2018-08-08T06:01:36.424Z,99.90
2018-08-08T06:04:04.523Z,99.90
2018-08-08T06:06:32.599Z,99.90
2018-08-08T06:09:00.677Z,99.90
2018-08-08T06:11:28.763Z,99.90
2018-08-08T06:13:56.907Z,99.90
2018-08-08T06:16:24.989Z,99.90
2018-08-08T06:18:53.056Z,99.90
2018-08-08T06:21:21.159Z,99.90
2018-08-08T06:23:49.261Z,99.90
2018-08-08T06:26:17.340Z,99.90
2018-08-08T06:28:45.544Z,99.90
2018-08-08T06:31:13.611Z,99.90
2018-08-08T06:33:41.695Z,99.90
2018-08-08T06:36:09.822Z,99.90
2018-08-08T06:38:37.892Z,99.90
2018-08-08T06:41:06.237Z,99.90
2018-08-08T06:43:34.336Z,99.90
2018-08-08T06:46:02.730Z,99.90
2018-08-08T06:48:30.849Z,99.90
2018-08-08T06:50:59.104Z,99.90
2018-08-08T06:53:27.162Z,99.90
2018-08-08T06:55:55.404Z,99.90
2018-08-08T06:58:23.456Z,99.90
2018-08-08T07:00:51.594Z,99.90
2018-08-08T07:03:19.680Z,99.90
2018-08-08T07:05:47.853Z,99.90
2018-08-08T07:08:16.132Z,99.90
2018-08-08T07:10:44.197Z,99.90
2018-08-08T07:13:12.226Z,99.90
2018-08-08T07:15:40.462Z,99.90
2018-08-08T07:18:08.694Z,99.90
2018-08-08T07:20:36.931Z,99.90
2018-08-08T07:23:05.565Z,99.90
2018-08-08T07:25:33.743Z,99.90
2018-08-08T07:28:01.933Z,99.90
2018-08-08T07:30:29.994Z,99.90
2018-08-08T07:32:58.176Z,99.90
2018-08-08T07:35:26.342Z,99.90
2018-08-08T07:37:54.557Z,99.90
2018-08-08T07:40:22.726Z,99.90
2018-08-08T07:42:50.928Z,99.90
2018-08-08T07:45:22.576Z,99.90
2018-08-08T07:47:50.704Z,99.90
2018-08-08T07:50:19.088Z,99.90
2018-08-08T07:52:47.238Z,99.90
2018-08-08T07:55:16.325Z,99.90
2018-08-08T07:57:44.722Z,99.90
2018-08-08T08:00:17.673Z,99.90
2018-08-08T08:02:45.765Z,99.90
2018-08-08T08:05:13.848Z,99.90
2018-08-08T08:07:41.987Z,99.90
2018-08-08T08:10:10.073Z,99.90
2018-08-08T08:12:38.282Z,99.90
2018-08-08T08:15:07.487Z,99.90
2018-08-08T08:17:35.652Z,99.90
2018-08-08T08:20:06.351Z,99.90
2018-08-08T08:22:34.387Z,99.90
2018-08-08T08:25:02.613Z,99.90
2018-08-08T08:27:30.960Z,99.90
2018-08-08T08:29:59.301Z,99.90
2018-08-08T08:32:27.311Z,99.90
2018-08-08T08:34:55.386Z,99.90
2018-08-08T08:37:23.450Z,99.90
2018-08-08T08:39:51.571Z,99.90
2018-08-08T08:42:21.073Z,99.90
2018-08-08T08:44:49.161Z,99.90
2018-08-08T08:47:17.277Z,99.90
2018-08-08T08:49:45.356Z,99.90
2018-08-08T08:52:13.486Z,99.90
2018-08-08T08:54:41.611Z,99.90
2018-08-08T08:57:09.664Z,99.90
2018-08-08T08:59:37.805Z,99.90
2018-08-08T09:02:05.881Z,99.90
2018-08-08T09:04:33.972Z,99.90
2018-08-08T09:07:02.040Z,99.90
2018-08-08T09:09:30.114Z,99.90
2018-08-08T09:11:58.426Z,99.90
2018-08-08T09:14:26.420Z,99.90
2018-08-08T09:16:54.592Z,99.90
2018-08-08T09:19:22.952Z,99.90
2018-08-08T09:21:51.732Z,99.90
2018-08-08T09:24:19.806Z,99.90
2018-08-08T09:26:47.860Z,99.90
2018-08-08T09:29:15.901Z,99.90
2018-08-08T09:31:44.013Z,99.90
2018-08-08T09:34:12.081Z,99.90
2018-08-08T09:36:40.153Z,99.90
2018-08-08T09:39:08.228Z,99.90
2018-08-08T09:41:36.372Z,99.90
2018-08-08T09:44:04.543Z,99.90
2018-08-08T09:46:32.646Z,99.90
2018-08-08T09:49:00.880Z,99.90
2018-08-08T09:51:28.964Z,99.90
2018-08-08T09:53:57.029Z,99.90
2018-08-08T09:56:25.140Z,99.90
2018-08-08T09:58:53.360Z,99.90
2018-08-08T10:01:21.994Z,99.90
2018-08-08T10:03:50.048Z,99.90
2018-08-08T10:06:18.150Z,99.90
2018-08-08T10:08:46.341Z,99.90
2018-08-08T10:11:14.396Z,99.90
2018-08-08T10:13:42.511Z,99.90
2018-08-08T10:16:10.692Z,99.90
2018-08-08T10:18:38.821Z,99.90
2018-08-08T10:21:07.421Z,99.90
2018-08-08T10:23:35.685Z,99.90
2018-08-08T10:26:04.089Z,99.90
2018-08-08T10:28:33.804Z,99.90
2018-08-08T10:31:02.048Z,99.90
2018-08-08T10:33:30.302Z,99.90
2018-08-08T10:35:58.400Z,99.90
2018-08-08T10:38:26.557Z,99.90
2018-08-08T10:40:54.632Z,99.90
2018-08-08T10:43:22.747Z,99.90
2018-08-08T10:45:50.907Z,99.90
2018-08-08T10:48:18.972Z,99.90
2018-08-08T10:50:47.022Z,99.90
2018-08-08T10:53:15.259Z,99.90
2018-08-08T10:55:43.600Z,99.90
2018-08-08T10:58:11.629Z,99.90
2018-08-08T11:00:39.939Z,99.90
2018-08-08T11:03:08.243Z,99.90
2018-08-08T11:05:36.382Z,99.90
2018-08-08T11:08:04.448Z,99.90
2018-08-08T11:10:32.507Z,99.90
2018-08-08T11:13:00.644Z,99.90
2018-08-08T11:15:28.762Z,99.90
2018-08-08T11:17:56.922Z,99.90
2018-08-08T11:20:25.032Z,99.90
2018-08-08T11:22:53.252Z,99.90
2018-08-08T11:25:21.417Z,99.90
2018-08-08T11:27:49.561Z,99.90
2018-08-08T11:30:17.742Z,99.90
2018-08-08T11:32:45.804Z,99.90
2018-08-08T11:35:13.914Z,99.90
2018-08-08T11:37:41.990Z,99.90
2018-08-08T11:40:10.084Z,99.90
2018-08-08T11:42:38.245Z,99.90
2018-08-08T11:45:06.644Z,99.90
2018-08-08T11:47:34.789Z,99.90
2018-08-08T11:50:03.181Z,99.90
2018-08-08T11:52:31.306Z,99.90
2018-08-08T11:54:59.437Z,99.90
2018-08-08T11:57:27.502Z,99.90
2018-08-08T11:59:55.575Z,99.90
2018-08-08T12:02:23.705Z,99.90
2018-08-08T12:04:51.881Z,99.90
2018-08-08T12:07:20.189Z,99.90
2018-08-08T12:09:49.023Z,99.90
2018-08-08T12:12:17.272Z,99.90
2018-08-08T12:14:45.438Z,99.90
2018-08-08T12:17:13.917Z,99.90
2018-08-08T12:19:42.015Z,99.90
2018-08-08T12:22:10.075Z,99.90
2018-08-08T12:24:38.200Z,99.90
2018-08-08T12:27:06.868Z,99.90
2018-08-08T12:29:34.948Z,99.90
2018-08-08T12:32:03.114Z,99.90
2018-08-08T12:34:31.181Z,99.90
2018-08-08T12:36:59.372Z,99.90
2018-08-08T12:39:27.401Z,99.90
2018-08-08T12:41:55.448Z,99.90
2018-08-08T12:44:23.536Z,99.90
2018-08-08T12:46:51.589Z,99.90
2018-08-08T12:49:19.657Z,99.90
2018-08-08T12:51:47.709Z,99.90
2018-08-08T12:54:15.824Z,99.90
2018-08-08T12:56:43.867Z,99.90
2018-08-08T12:59:12.010Z,99.90
2018-08-08T13:01:40.037Z,99.90
2018-08-08T13:04:08.224Z,99.90
2018-08-08T13:06:36.279Z,99.90
2018-08-08T13:09:07.157Z,99.90
2018-08-08T13:11:35.219Z,99.90
2018-08-08T13:14:03.310Z,99.90
2018-08-08T13:16:31.405Z,99.90
2018-08-08T13:18:59.512Z,99.90
2018-08-08T13:21:27.597Z,99.90
2018-08-08T13:23:55.767Z,99.90
2018-08-08T13:26:23.792Z,99.90
2018-08-08T13:29:00.026Z,99.90
2018-08-08T13:31:28.361Z,99.90
2018-08-08T13:33:56.483Z,99.90
2018-08-08T13:36:24.512Z,99.90
2018-08-08T13:38:52.584Z,99.90
2018-08-08T13:41:20.672Z,99.90
2018-08-08T13:43:48.765Z,99.90
2018-08-08T13:46:16.844Z,99.90
2018-08-08T13:48:49.610Z,99.90
2018-08-08T13:51:17.646Z,99.90
2018-08-08T13:53:45.812Z,99.90
2018-08-08T13:56:13.923Z,99.90
2018-08-08T13:58:42.062Z,99.90
2018-08-08T14:01:10.232Z,99.90
2018-08-08T14:03:38.292Z,99.90
2018-08-08T14:06:06.506Z,99.90
2018-08-08T14:08:36.998Z,99.90
2018-08-08T14:11:05.302Z,99.90
2018-08-08T14:13:34.852Z,99.90
2018-08-08T14:16:02.944Z,99.90
2018-08-08T14:18:31.560Z,99.90
2018-08-08T14:20:59.946Z,99.50
2018-08-08T14:23:28.332Z,99.80
2018-08-08T14:25:56.465Z,99.90
2018-08-08T14:28:24.670Z,99.90
2018-08-08T14:30:52.804Z,99.90
2018-08-08T14:33:20.875Z,99.90
2018-08-08T14:35:49.100Z,99.90
2018-08-08T14:38:17.140Z,99.90
2018-08-08T14:40:45.303Z,99.90
2018-08-08T14:43:13.445Z,99.90
2018-08-08T14:45:41.541Z,99.90
2018-08-08T14:48:13.015Z,99.90
2018-08-08T14:50:41.159Z,99.90
2018-08-08T14:53:09.351Z,99.90
2018-08-08T14:55:37.579Z,99.90
2018-08-08T14:58:06.050Z,99.90
2018-08-08T15:00:35.543Z,99.90
2018-08-08T15:03:04.273Z,99.90
2018-08-08T15:05:32.414Z,99.90
2018-08-08T15:08:00.577Z,99.90
2018-08-08T15:10:30.577Z,99.90
2018-08-08T15:12:58.831Z,99.90
2018-08-08T15:15:27.014Z,99.90
2018-08-08T15:17:55.075Z,99.90
2018-08-08T15:20:23.127Z,99.90
2018-08-08T15:22:51.232Z,99.90
2018-08-08T15:25:19.798Z,99.70
2018-08-08T15:27:47.938Z,99.40
2018-08-08T15:30:16.002Z,99.00
2018-08-08T15:32:44.238Z,99.10
2018-08-08T15:35:12.380Z,98.70
2018-08-08T15:37:40.785Z,98.00
2018-08-08T15:40:08.662Z,97.70
2018-08-08T15:42:37.661Z,97.80
2018-08-08T15:45:07.544Z,98.20
2018-08-08T15:47:35.632Z,98.30
2018-08-08T15:50:05.341Z,97.60
2018-08-08T15:52:33.474Z,96.80
2018-08-08T15:55:01.734Z,96.40
2018-08-08T15:57:29.829Z,95.90
2018-08-08T15:59:58.100Z,95.60
2018-08-08T16:02:26.261Z,95.10
2018-08-08T16:04:54.295Z,94.20
2018-08-08T16:07:22.505Z,93.60
2018-08-08T16:09:50.606Z,93.10
2018-08-08T16:12:18.702Z,93.40
2018-08-08T16:14:46.782Z,93.00
2018-08-08T16:17:14.848Z,92.30
2018-08-08T16:19:42.987Z,91.90
2018-08-08T16:22:11.326Z,92.30
2018-08-08T16:24:39.617Z,92.60
2018-08-08T16:27:08.463Z,92.90
2018-08-08T16:29:36.538Z,93.00
2018-08-08T16:32:04.765Z,93.10
2018-08-08T16:34:32.803Z,93.70
2018-08-08T16:37:00.930Z,93.80
2018-08-08T16:39:29.039Z,94.00
2018-08-08T16:41:57.104Z,93.60
2018-08-08T16:44:25.262Z,93.60
2018-08-08T16:46:53.390Z,93.50
2018-08-08T16:49:21.570Z,93.40
2018-08-08T16:51:49.701Z,93.60
2018-08-08T16:54:17.766Z,93.90
2018-08-08T16:56:45.873Z,94.00
2018-08-08T16:59:14.617Z,93.70
2018-08-08T17:01:42.687Z,93.20
2018-08-08T17:04:10.756Z,92.90
2018-08-08T17:06:38.909Z,92.80
2018-08-08T17:09:08.075Z,92.70
2018-08-08T17:11:36.199Z,93.20
2018-08-08T17:14:04.311Z,93.50
2018-08-08T17:16:32.403Z,93.10
2018-08-08T17:19:00.560Z,93.00
2018-08-08T17:21:29.844Z,92.90
2018-08-08T17:23:57.977Z,92.80
2018-08-08T17:26:26.173Z,93.30
2018-08-08T17:28:54.227Z,93.90
2018-08-08T17:31:22.301Z,92.90
2018-08-08T17:33:50.345Z,92.50
2018-08-08T17:36:18.440Z,92.20
2018-08-08T17:38:46.577Z,91.80
2018-08-08T17:41:14.623Z,92.40
2018-08-08T17:43:43.012Z,92.10
2018-08-08T17:46:10.799Z,91.90
2018-08-08T17:48:39.044Z,92.10
2018-08-08T17:51:07.213Z,92.00
2018-08-08T17:53:35.646Z,92.00
2018-08-08T17:56:03.702Z,92.10
2018-08-08T17:58:31.775Z,92.60
2018-08-08T18:00:59.884Z,92.70
2018-08-08T18:03:27.967Z,92.60
2018-08-08T18:05:56.043Z,92.90
2018-08-08T18:08:24.311Z,92.60
2018-08-08T18:10:52.565Z,92.40
2018-08-08T18:13:24.838Z,92.40
2018-08-08T18:15:53.348Z,92.80
2018-08-08T18:18:21.425Z,93.10
2018-08-08T18:20:49.641Z,92.90
2018-08-08T18:23:17.677Z,93.10
2018-08-08T18:25:45.767Z,92.80
2018-08-08T18:28:13.841Z,92.80
2018-08-08T18:30:42.054Z,93.10
2018-08-08T18:33:10.248Z,93.40
2018-08-08T18:35:38.329Z,93.30
2018-08-08T18:38:06.533Z,93.50
2018-08-08T18:40:34.553Z,93.80
2018-08-08T18:43:02.736Z,94.20
2018-08-08T18:45:30.770Z,94.60
2018-08-08T18:47:58.886Z,94.80
2018-08-08T18:50:26.992Z,94.70
2018-08-08T18:52:55.099Z,95.00
2018-08-08T18:55:23.174Z,94.90
2018-08-08T18:57:51.264Z,95.30
2018-08-08T19:00:19.388Z,95.50
2018-08-08T19:02:47.518Z,95.50
2018-08-08T19:05:15.753Z,95.80
2018-08-08T19:07:43.821Z,96.00
2018-08-08T19:10:11.981Z,96.10
2018-08-08T19:12:40.114Z,96.50
2018-08-08T19:15:08.206Z,96.60
2018-08-08T19:17:36.277Z,96.60
2018-08-08T19:20:04.779Z,97.00
2018-08-08T19:22:32.924Z,97.00
2018-08-08T19:25:00.967Z,96.90
2018-08-08T19:27:29.019Z,97.00
2018-08-08T19:29:57.368Z,97.10
2018-08-08T19:32:25.498Z,97.40
2018-08-08T19:34:53.593Z,97.60
2018-08-08T19:37:21.732Z,97.70
2018-08-08T19:39:49.873Z,98.30
2018-08-08T19:42:17.921Z,98.30
2018-08-08T19:44:46.146Z,98.50
2018-08-08T19:47:14.373Z,98.60
2018-08-08T19:49:42.437Z,98.60
2018-08-08T19:52:10.608Z,98.80
2018-08-08T19:54:38.747Z,99.00
2018-08-08T19:57:06.782Z,99.40
2018-08-08T19:59:34.975Z,99.50
2018-08-08T20:02:03.046Z,99.70
2018-08-08T20:04:31.181Z,99.90
2018-08-08T20:06:59.297Z,99.90
2018-08-08T20:09:27.526Z,99.90
2018-08-08T20:11:55.592Z,99.90
2018-08-08T20:14:23.635Z,99.90
2018-08-08T20:16:51.776Z,99.90
2018-08-08T20:19:19.842Z,99.90
2018-08-08T20:21:48.004Z,99.90
2018-08-08T20:24:16.105Z,99.90
2018-08-08T20:26:44.429Z,99.90
2018-08-08T20:29:12.763Z,99.90
2018-08-08T20:31:51.564Z,99.90
2018-08-08T20:34:21.838Z,99.90
2018-08-08T20:36:51.503Z,99.90
2018-08-08T20:39:20.014Z,99.90
2018-08-08T20:41:49.241Z,99.90
2018-08-08T20:44:17.453Z,99.90
2018-08-08T20:46:45.495Z,99.90
2018-08-08T20:49:13.759Z,99.90
2018-08-08T20:51:41.950Z,99.90
2018-08-08T20:54:10.017Z,99.90
2018-08-08T20:56:38.090Z,99.90
2018-08-08T20:59:06.254Z,99.90
2018-08-08T21:01:34.324Z,99.90
2018-08-08T21:04:02.385Z,99.90
2018-08-08T21:06:30.543Z,99.90
2018-08-08T21:08:59.006Z,99.90
2018-08-08T21:11:27.174Z,99.90
2018-08-08T21:13:55.291Z,99.90
2018-08-08T21:16:23.655Z,99.90
2018-08-08T21:18:52.225Z,99.90
2018-08-08T21:21:20.962Z,99.90
2018-08-08T21:23:49.109Z,99.90
2018-08-08T21:26:17.397Z,99.90
2018-08-08T21:28:47.312Z,99.90
2018-08-08T21:31:15.626Z,99.90
2018-08-08T21:33:43.873Z,99.90
2018-08-08T21:36:12.056Z,99.90
2018-08-08T21:38:40.280Z,99.90
2018-08-08T21:41:08.564Z,99.90
2018-08-08T21:43:36.615Z,99.90
2018-08-08T21:46:04.728Z,99.90
2018-08-08T21:48:32.939Z,99.90
2018-08-08T21:51:01.001Z,99.90
2018-08-08T21:53:40.293Z,99.90
2018-08-08T21:56:19.596Z,99.90
2018-08-08T21:58:59.094Z,99.90
2018-08-08T22:01:38.339Z,99.90
2018-08-08T22:04:17.981Z,99.90
2018-08-08T22:06:57.269Z,99.90
2018-08-08T22:10:40.330Z,99.90
2018-08-08T22:13:19.640Z,99.90
2018-08-08T22:15:59.194Z,99.90
2018-08-08T22:18:38.496Z,99.90
2018-08-08T22:21:06.701Z,99.90
2018-08-08T22:23:34.839Z,99.90
2018-08-08T22:26:03.394Z,99.90
2018-08-08T22:28:31.484Z,99.90
2018-08-08T22:30:59.638Z,99.90
2018-08-08T22:33:27.990Z,99.90
2018-08-08T22:35:56.361Z,99.90
2018-08-08T22:38:24.533Z,99.90
2018-08-08T22:40:52.956Z,99.90
2018-08-08T22:43:21.069Z,99.90
2018-08-08T22:45:49.944Z,99.90
2018-08-08T22:48:17.981Z,99.90
2018-08-08T22:50:46.328Z,99.90
2018-08-08T22:53:14.365Z,99.90
2018-08-08T22:55:43.380Z,99.90
2018-08-08T22:58:11.487Z,99.90
2018-08-08T23:00:39.543Z,99.90
2018-08-08T23:03:07.623Z,99.90
2018-08-08T23:05:35.676Z,99.90
2018-08-08T23:08:04.475Z,99.90
2018-08-08T23:10:32.554Z,99.90
2018-08-08T23:13:00.670Z,99.90
2018-08-08T23:15:28.867Z,99.90
2018-08-08T23:17:56.993Z,99.90
2018-08-08T23:20:25.009Z,99.90
2018-08-08T23:22:53.426Z,99.90
2018-08-08T23:25:21.553Z,99.90
2018-08-08T23:27:49.775Z,99.90
2018-08-08T23:30:17.820Z,99.90
2018-08-08T23:32:45.901Z,99.90
2018-08-08T23:35:14.563Z,99.90
2018-08-08T23:37:42.772Z,99.90
2018-08-08T23:40:11.958Z,99.90
2018-08-08T23:42:39.978Z,99.90
2018-08-08T23:45:08.053Z,99.90
2018-08-08T23:47:37.300Z,99.90
2018-08-08T23:50:05.416Z,99.90
2018-08-08T23:52:33.425Z,99.90
2018-08-08T23:55:01.545Z,99.90
2018-08-08T23:57:29.637Z,99.90
2018-08-08T23:59:57.708Z,99.90
